Time;durP1;ratioP1;P1;durP2;ratioP2;P2;SDS_P1;SDS_P2;PMS_P1;PMS_P2;Temp;Humidity;BMP_temperature;BMP_pressure;BME280_temperature;BME280_humidity;BME280_pressure;Samples;Min_cycle;Max_cycle;Signal;HPM_P1;HPM_P2
2022/07/29 00:01:31;;;;;;;0.93;0.70;;;18.80;85.70;;;;;;5108837;28;20093;-33
2022/07/29 00:03:57;;;;;;;2.40;1.02;;;18.70;85.90;;;;;;5107718;28;20024;-35
2022/07/29 00:06:22;;;;;;;0.93;0.77;;;18.70;86.00;;;;;;5107942;28;20108;-35
2022/07/29 00:08:48;;;;;;;1.63;1.00;;;18.70;86.10;;;;;;5107027;28;20044;-34
2022/07/29 00:11:13;;;;;;;1.70;0.80;;;18.60;86.10;;;;;;5108284;28;20024;-34
2022/07/29 00:13:39;;;;;;;1.30;0.90;;;18.60;86.10;;;;;;5108498;28;20058;-33
2022/07/29 00:16:05;;;;;;;0.93;0.75;;;18.60;86.10;;;;;;5107683;28;20378;-33
2022/07/29 00:18:30;;;;;;;1.60;0.70;;;18.60;86.20;;;;;;5107782;28;20059;-34
2022/07/29 00:20:56;;;;;;;1.08;0.80;;;18.60;86.50;;;;;;5107623;28;20028;-37
2022/07/29 00:23:21;;;;;;;1.30;0.80;;;18.60;86.70;;;;;;5107611;28;20030;-34
2022/07/29 00:25:47;;;;;;;1.10;0.98;;;18.50;86.70;;;;;;5106626;28;20048;-33
2022/07/29 00:28:12;;;;;;;1.20;0.93;;;18.50;86.80;;;;;;5108739;28;20032;-33
2022/07/29 00:30:38;;;;;;;1.67;1.00;;;18.50;87.10;;;;;;5104861;28;20721;-33
2022/07/29 00:33:04;;;;;;;1.83;0.70;;;18.40;87.20;;;;;;5107434;28;20024;-33
2022/07/29 00:35:44;;;;;;;2.35;1.05;;;18.40;87.30;;;;;;5107584;28;20059;-33
2022/07/29 00:38:14;;;;;;;2.63;0.80;;;18.40;87.40;;;;;;5107488;28;20130;-33
2022/07/29 00:40:40;;;;;;;1.25;0.85;;;18.40;87.50;;;;;;5107185;28;20027;-34
2022/07/29 00:43:06;;;;;;;1.92;0.88;;;18.40;87.50;;;;;;5107608;28;20022;-33
2022/07/29 00:45:32;;;;;;;1.70;0.70;;;18.40;87.70;;;;;;5106504;28;20467;-32
2022/07/29 00:47:57;;;;;;;2.33;0.98;;;18.40;87.80;;;;;;5107145;28;20046;-34
2022/07/29 00:50:23;;;;;;;1.00;0.90;;;18.40;88.00;;;;;;5107858;28;20024;-33
2022/07/29 00:52:51;;;;;;;1.95;1.00;;;18.30;88.20;;;;;;5106662;28;20020;-33
2022/07/29 00:55:17;;;;;;;2.28;1.23;;;18.30;88.60;;;;;;5107356;28;20030;-33
2022/07/29 00:57:43;;;;;;;2.72;1.10;;;18.20;88.60;;;;;;5106803;28;20015;-33
2022/07/29 01:00:12;;;;;;;2.85;1.10;;;18.20;89.10;;;;;;5106898;28;20107;-33
2022/07/29 01:02:38;;;;;;;1.83;0.95;;;18.20;89.00;;;;;;5106362;28;20024;-33
2022/07/29 01:05:05;;;;;;;2.38;1.25;;;18.20;89.20;;;;;;5106407;28;20035;-33
2022/07/29 01:07:33;;;;;;;2.25;1.08;;;18.20;89.10;;;;;;5106039;28;20448;-34
2022/07/29 01:09:59;;;;;;;1.95;0.82;;;18.20;89.10;;;;;;5106906;28;20039;-33
2022/07/29 01:12:26;;;;;;;1.67;1.00;;;18.20;89.10;;;;;;5106563;28;20536;-35
2022/07/29 01:14:53;;;;;;;1.90;1.15;;;18.10;89.00;;;;;;5107162;28;20036;-34
2022/07/29 01:17:35;;;;;;;1.13;0.75;;;18.10;89.50;;;;;;5106769;28;20412;-34
2022/07/29 01:20:12;;;;;;;1.55;1.00;;;18.10;89.70;;;;;;5106304;28;20056;-34
2022/07/29 01:23:10;;;;;;;2.25;1.13;;;18.10;89.70;;;;;;5106642;28;20032;-34
2022/07/29 01:25:54;;;;;;;2.13;1.08;;;18.10;89.80;;;;;;5074777;28;20075;-32
2022/07/29 01:28:39;;;;;;;3.10;1.50;;;18.00;89.70;;;;;;5104634;28;20067;-34
2022/07/29 01:31:06;;;;;;;2.55;1.08;;;18.00;90.00;;;;;;5106948;28;20112;-34
2022/07/29 01:33:50;;;;;;;1.65;1.00;;;18.00;90.00;;;;;;5105385;28;20062;-33
2022/07/29 01:36:42;;;;;;;1.73;1.15;;;18.00;90.00;;;;;;5106178;28;20023;-35
2022/07/29 01:39:13;;;;;;;;;;;18.00;90.00;;;;;;5093762;28;20032;-33
2022/07/29 01:41:45;;;;;;;1.48;0.90;;;18.00;90.00;;;;;;5105051;28;20367;-34
2022/07/29 01:44:34;;;;;;;1.88;0.85;;;18.00;89.90;;;;;;5105721;28;20491;-33
2022/07/29 01:47:08;;;;;;;1.85;1.20;;;18.00;89.90;;;;;;5105795;28;20042;-35
2022/07/29 01:49:39;;;;;;;1.63;1.00;;;18.00;90.00;;;;;;5103265;28;20040;-34
2022/07/29 01:52:21;;;;;;;1.50;0.70;;;18.00;90.10;;;;;;5106462;28;20506;-35
2022/07/29 01:54:53;;;;;;;1.40;0.90;;;18.00;90.20;;;;;;5103070;28;20020;-33
2022/07/29 01:57:23;;;;;;;2.85;1.17;;;18.00;90.10;;;;;;5106414;28;20036;-33
2022/07/29 01:59:50;;;;;;;2.20;1.00;;;18.00;90.10;;;;;;5102702;28;20031;-33
2022/07/29 02:02:17;;;;;;;1.52;0.80;;;18.00;90.10;;;;;;5105918;28;20031;-34
2022/07/29 02:04:48;;;;;;;1.85;0.80;;;18.00;90.10;;;;;;5106055;28;20024;-34
2022/07/29 02:07:17;;;;;;;1.23;0.88;;;18.00;90.10;;;;;;5106337;28;20478;-34
2022/07/29 02:09:45;;;;;;;1.48;0.80;;;18.00;90.30;;;;;;5104200;28;20031;-34
2022/07/29 02:12:12;;;;;;;1.67;1.00;;;18.00;90.40;;;;;;5106369;28;20035;-33
2022/07/29 02:14:42;;;;;;;2.25;1.88;;;18.00;90.50;;;;;;5105501;28;20031;-33
2022/07/29 02:17:08;;;;;;;2.20;1.20;;;18.00;90.70;;;;;;5084433;28;20113;-36
2022/07/29 02:19:37;;;;;;;1.88;1.00;;;18.00;90.70;;;;;;5100000;28;20383;-34
2022/07/29 02:22:03;;;;;;;1.95;1.05;;;18.00;90.70;;;;;;5105699;28;20088;-34
2022/07/29 02:24:30;;;;;;;1.92;0.98;;;18.00;90.80;;;;;;5104525;28;20352;-34
2022/07/29 02:26:58;;;;;;;2.92;1.20;;;18.00;90.90;;;;;;5105543;28;20047;-34
2022/07/29 02:29:26;;;;;;;1.48;1.10;;;18.00;91.00;;;;;;5104878;28;20032;-34
2022/07/29 02:31:53;;;;;;;1.35;0.93;;;18.00;91.10;;;;;;5105893;28;20020;-34
2022/07/29 02:34:20;;;;;;;1.60;1.00;;;17.90;91.10;;;;;;5105578;28;20062;-34
2022/07/29 02:36:47;;;;;;;1.95;0.82;;;17.90;91.20;;;;;;5105074;28;20091;-34
2022/07/29 02:39:15;;;;;;;2.50;0.98;;;17.90;91.20;;;;;;5105780;28;20030;-34
2022/07/29 02:41:48;;;;;;;2.35;1.20;;;17.90;91.30;;;;;;5105659;28;20051;-32
2022/07/29 02:44:20;;;;;;;3.42;1.00;;;17.80;91.40;;;;;;5105615;28;20023;-33
2022/07/29 02:46:50;;;;;;;2.92;1.10;;;17.80;91.50;;;;;;5105483;28;20027;-34
2022/07/29 02:49:36;;;;;;;1.05;0.93;;;17.70;91.50;;;;;;5109288;28;20077;-34
2022/07/29 02:52:26;;;;;;;1.40;1.10;;;17.70;91.50;;;;;;5098253;28;20020;-33
2022/07/29 02:54:56;;;;;;;1.85;1.08;;;17.70;91.70;;;;;;5109338;28;20023;-32
2022/07/29 02:57:36;;;;;;;3.00;1.17;;;17.60;91.70;;;;;;5109301;28;20035;-33
2022/07/29 03:00:06;;;;;;;1.60;1.10;;;17.60;91.80;;;;;;5108566;28;20360;-34
2022/07/29 03:02:36;;;;;;;2.17;1.00;;;17.50;92.00;;;;;;5109056;28;20499;-33
2022/07/29 03:05:03;;;;;;;2.83;1.17;;;17.40;92.10;;;;;;5108266;28;20027;-33
2022/07/29 03:07:29;;;;;;;2.42;1.10;;;17.40;92.30;;;;;;5098123;28;20023;-34
2022/07/29 03:09:56;;;;;;;1.48;1.10;;;17.30;92.40;;;;;;5108281;28;20040;-36
2022/07/29 03:12:23;;;;;;;3.65;2.15;;;17.30;92.50;;;;;;5108449;28;20020;-34
2022/07/29 03:14:49;;;;;;;1.70;1.17;;;17.20;92.60;;;;;;5109212;28;20023;-33
2022/07/29 03:17:15;;;;;;;2.67;1.40;;;17.10;92.80;;;;;;5109408;28;20451;-33
2022/07/29 03:19:41;;;;;;;1.85;1.35;;;17.10;92.90;;;;;;5108768;28;20074;-34
2022/07/29 03:22:07;;;;;;;1.80;1.33;;;17.00;93.10;;;;;;5108927;28;20371;-33
2022/07/29 03:24:35;;;;;;;2.63;1.60;;;16.90;93.30;;;;;;5108998;28;20031;-34
2022/07/29 03:27:01;;;;;;;1.60;1.30;;;16.80;93.70;;;;;;5108218;28;20047;-34
2022/07/29 03:29:27;;;;;;;1.60;1.50;;;16.70;93.80;;;;;;5108983;28;20567;-34
2022/07/29 03:31:53;;;;;;;3.60;1.52;;;16.60;94.00;;;;;;5108857;28;20031;-35
2022/07/29 03:34:19;;;;;;;1.80;1.50;;;16.50;94.10;;;;;;5108679;28;20033;-33
2022/07/29 03:36:45;;;;;;;1.50;1.40;;;16.50;94.20;;;;;;5108123;28;20338;-33
2022/07/29 03:39:14;;;;;;;3.15;1.67;;;16.50;94.40;;;;;;5109191;28;20126;-33
2022/07/29 03:41:41;;;;;;;1.92;1.40;;;16.40;94.70;;;;;;5108009;28;20016;-32
2022/07/29 03:44:08;;;;;;;2.03;1.75;;;16.40;94.70;;;;;;5108313;28;20103;-32
2022/07/29 03:46:35;;;;;;;2.55;1.40;;;16.40;94.90;;;;;;5108370;28;20027;-33
2022/07/29 03:49:03;;;;;;;2.92;1.70;;;16.30;95.00;;;;;;5107600;28;20131;-33
2022/07/29 03:51:30;;;;;;;1.30;1.20;;;16.30;95.20;;;;;;5108205;28;20094;-33
2022/07/29 03:53:58;;;;;;;2.28;1.30;;;16.20;95.20;;;;;;5107903;28;20114;-34
2022/07/29 03:56:25;;;;;;;2.47;1.60;;;16.20;95.40;;;;;;5108118;28;20059;-34
2022/07/29 03:58:52;;;;;;;2.05;1.60;;;16.10;95.80;;;;;;5107650;28;20136;-34
2022/07/29 04:01:19;;;;;;;1.65;1.40;;;16.10;95.90;;;;;;5108373;28;20035;-34
2022/07/29 04:03:45;;;;;;;2.00;1.45;;;16.00;96.00;;;;;;5107348;28;20512;-33
2022/07/29 04:06:11;;;;;;;2.25;1.40;;;16.00;96.10;;;;;;5108893;28;20053;-35
2022/07/29 04:08:37;;;;;;;2.58;1.70;;;16.00;96.30;;;;;;5107078;28;20768;-33
2022/07/29 04:11:04;;;;;;;2.22;1.52;;;16.00;96.20;;;;;;5108025;28;20080;-33
2022/07/29 04:13:30;;;;;;;1.95;1.50;;;16.00;96.30;;;;;;5108588;28;20054;-35
2022/07/29 04:15:56;;;;;;;2.45;1.60;;;15.90;96.40;;;;;;5107237;28;20063;-34
2022/07/29 04:18:22;;;;;;;3.75;2.15;;;15.90;96.40;;;;;;5108205;28;20077;-33
2022/07/29 04:20:47;;;;;;;2.20;1.98;;;16.00;96.90;;;;;;5108293;28;20417;-33
2022/07/29 04:23:13;;;;;;;1.83;1.40;;;15.90;96.70;;;;;;5106873;28;20072;-34
2022/07/29 04:25:39;;;;;;;1.70;1.60;;;15.90;96.80;;;;;;5107866;28;20051;-34
2022/07/29 04:28:06;;;;;;;2.95;1.38;;;15.90;96.80;;;;;;5107723;28;20110;-35
2022/07/29 04:30:32;;;;;;;2.80;1.60;;;16.00;96.90;;;;;;5107109;28;20084;-34
2022/07/29 04:32:58;;;;;;;1.70;1.60;;;16.00;97.10;;;;;;5107127;28;20313;-35
2022/07/29 04:35:24;;;;;;;2.00;1.80;;;16.00;97.20;;;;;;5107508;28;20023;-35
2022/07/29 04:37:49;;;;;;;1.77;1.55;;;15.90;97.50;;;;;;5106365;28;20429;-35
2022/07/29 04:40:15;;;;;;;1.95;1.45;;;15.90;97.20;;;;;;5107840;28;20054;-35
2022/07/29 04:42:40;;;;;;;1.60;1.50;;;16.00;97.20;;;;;;5107896;28;20038;-35
2022/07/29 04:45:06;;;;;;;1.77;1.42;;;16.00;97.20;;;;;;5106088;28;20032;-35
2022/07/29 04:47:32;;;;;;;1.40;1.30;;;16.10;97.20;;;;;;5107217;28;20020;-35
2022/07/29 04:49:58;;;;;;;1.80;1.52;;;16.10;97.10;;;;;;5106521;28;20035;-33
2022/07/29 04:52:23;;;;;;;2.85;1.80;;;16.10;97.10;;;;;;5106617;28;20024;-34
2022/07/29 04:54:49;;;;;;;2.72;1.70;;;16.10;97.10;;;;;;5107238;28;20445;-35
2022/07/29 04:57:15;;;;;;;2.15;1.70;;;16.10;97.20;;;;;;5106268;28;20028;-35
2022/07/29 04:59:40;;;;;;;2.60;1.80;;;16.10;97.30;;;;;;5106276;28;20043;-33
2022/07/29 05:02:05;;;;;;;2.53;1.30;;;16.10;97.30;;;;;;5106866;28;20023;-33
2022/07/29 05:04:31;;;;;;;1.65;1.42;;;16.00;97.30;;;;;;5105580;28;20031;-33
2022/07/29 05:06:57;;;;;;;2.80;1.40;;;16.00;97.30;;;;;;5106594;28;20475;-32
2022/07/29 05:09:22;;;;;;;3.20;2.00;;;16.00;97.40;;;;;;5107002;28;20152;-33
2022/07/29 05:11:48;;;;;;;3.92;2.10;;;16.00;97.50;;;;;;5104787;28;20024;-34
2022/07/29 05:14:13;;;;;;;2.13;1.63;;;16.00;97.70;;;;;;5107208;28;20110;-33
2022/07/29 05:16:43;;;;;;;2.53;1.70;;;15.90;97.80;;;;;;5106743;28;20024;-33
2022/07/29 05:19:08;;;;;;;1.80;1.70;;;15.90;97.80;;;;;;5106019;28;20450;-33
2022/07/29 05:21:34;;;;;;;3.28;2.00;;;16.00;97.80;;;;;;5106954;28;20127;-34
2022/07/29 05:23:59;;;;;;;3.00;1.50;;;16.00;97.90;;;;;;5106500;28;20031;-34
2022/07/29 05:26:25;;;;;;;4.47;2.20;;;16.00;97.90;;;;;;5105790;28;20040;-34
2022/07/29 05:28:50;;;;;;;2.85;1.75;;;16.00;98.00;;;;;;5106991;28;20032;-34
2022/07/29 05:31:16;;;;;;;2.20;1.80;;;16.00;97.90;;;;;;5106458;28;20470;-33
2022/07/29 05:33:42;;;;;;;4.10;1.67;;;16.00;98.00;;;;;;5105410;28;20031;-34
2022/07/29 05:36:08;;;;;;;2.55;1.83;;;16.10;97.90;;;;;;5105507;28;20383;-36
2022/07/29 05:38:34;;;;;;;1.63;1.52;;;16.20;97.90;;;;;;5106333;28;20131;-34
2022/07/29 05:41:00;;;;;;;1.63;1.52;;;16.20;97.80;;;;;;5105448;28;20031;-34
2022/07/29 05:43:27;;;;;;;2.28;1.60;;;16.30;97.80;;;;;;5105950;28;20352;-34
2022/07/29 05:45:52;;;;;;;1.92;1.33;;;16.40;97.70;;;;;;5105766;28;20102;-34
2022/07/29 05:48:18;;;;;;;1.45;1.35;;;16.50;97.60;;;;;;5105426;28;20055;-34
2022/07/29 05:50:43;;;;;;;1.88;1.65;;;16.50;97.60;;;;;;5105171;28;20457;-35
2022/07/29 05:53:09;;;;;;;2.63;1.30;;;16.50;97.50;;;;;;5106034;28;20012;-34
2022/07/29 05:55:34;;;;;;;3.65;1.27;;;16.50;97.50;;;;;;5105691;28;20035;-35
2022/07/29 05:58:00;;;;;;;2.05;1.70;;;16.60;97.60;;;;;;5105624;28;20030;-34
2022/07/29 06:00:25;;;;;;;1.83;1.52;;;16.60;97.60;;;;;;5104695;28;20037;-34
2022/07/29 06:02:51;;;;;;;2.35;1.50;;;16.60;97.60;;;;;;5105816;28;20030;-35
2022/07/29 06:05:17;;;;;;;2.10;1.48;;;16.60;97.50;;;;;;5105823;28;20445;-35
2022/07/29 06:07:42;;;;;;;2.63;1.67;;;16.60;97.50;;;;;;5104818;28;20047;-36
2022/07/29 06:10:09;;;;;;;2.70;1.73;;;16.60;97.50;;;;;;5106266;28;20352;-34
2022/07/29 06:12:34;;;;;;;2.67;1.85;;;16.70;97.60;;;;;;5105419;28;20117;-34
2022/07/29 06:15:00;;;;;;;1.83;1.42;;;16.70;97.60;;;;;;5105046;28;20055;-34
2022/07/29 06:17:25;;;;;;;1.60;1.13;;;16.70;97.50;;;;;;5105673;28;20012;-34
2022/07/29 06:19:51;;;;;;;1.35;1.25;;;16.80;97.50;;;;;;5105514;28;20456;-34
2022/07/29 06:22:17;;;;;;;1.80;1.70;;;16.80;97.40;;;;;;5107028;28;20608;-34
2022/07/29 06:24:43;;;;;;;1.60;1.50;;;16.90;97.40;;;;;;5109536;28;20084;-34
2022/07/29 06:27:10;;;;;;;2.33;1.50;;;16.90;97.40;;;;;;5110031;28;20505;-34
2022/07/29 06:29:36;;;;;;;2.55;2.10;;;17.00;97.30;;;;;;5109358;28;20039;-34
2022/07/29 06:32:02;;;;;;;1.95;1.55;;;17.10;97.30;;;;;;5109262;28;20132;-34
2022/07/29 06:34:28;;;;;;;1.45;1.30;;;17.10;97.10;;;;;;5109576;28;20364;-34
2022/07/29 06:36:53;;;;;;;3.88;1.70;;;17.20;97.10;;;;;;5108672;28;20223;-35
2022/07/29 06:39:19;;;;;;;1.90;1.63;;;17.30;97.00;;;;;;5109662;28;20027;-33
2022/07/29 06:41:51;;;;;;;2.67;1.65;;;17.50;97.00;;;;;;5109397;28;20028;-34
2022/07/29 06:44:18;;;;;;;3.10;1.48;;;17.50;96.80;;;;;;5105542;28;20081;-33
2022/07/29 06:46:44;;;;;;;1.40;1.30;;;17.60;96.70;;;;;;5109550;28;20357;-33
2022/07/29 06:49:09;;;;;;;1.95;1.40;;;17.70;96.60;;;;;;5108450;28;20383;-34
2022/07/29 06:51:35;;;;;;;3.45;1.30;;;17.70;96.50;;;;;;5109012;28;20032;-33
2022/07/29 06:54:04;;;;;;;2.35;1.17;;;17.80;96.50;;;;;;5109333;28;20064;-33
2022/07/29 06:56:31;;;;;;;1.90;1.60;;;17.80;96.50;;;;;;5109424;28;20034;-35
2022/07/29 06:58:57;;;;;;;2.35;1.40;;;17.90;96.70;;;;;;5108386;28;20027;-34
2022/07/29 07:01:22;;;;;;;2.65;1.38;;;17.90;96.30;;;;;;5109449;28;20080;-34
2022/07/29 07:03:48;;;;;;;1.52;1.40;;;18.00;96.20;;;;;;5107750;28;20069;-34
2022/07/29 07:06:13;;;;;;;2.05;1.45;;;18.00;96.20;;;;;;5109432;28;20028;-35
2022/07/29 07:08:39;;;;;;;3.05;1.40;;;18.00;96.20;;;;;;5109388;28;20039;-34
2022/07/29 07:11:06;;;;;;;2.50;1.70;;;18.00;96.30;;;;;;5108227;28;20581;-34
2022/07/29 07:13:34;;;;;;;2.38;1.67;;;18.00;96.30;;;;;;5106387;28;20031;-34
2022/07/29 07:16:00;;;;;;;4.00;1.60;;;18.10;96.30;;;;;;5107494;28;20019;-35
2022/07/29 07:18:26;;;;;;;2.42;1.30;;;18.10;96.30;;;;;;5106642;28;20050;-34
2022/07/29 07:20:51;;;;;;;2.55;1.50;;;18.20;96.30;;;;;;5108146;28;20352;-35
2022/07/29 07:23:17;;;;;;;2.08;1.50;;;18.20;96.20;;;;;;5108632;28;20051;-34
2022/07/29 07:25:43;;;;;;;1.85;1.45;;;18.30;96.20;;;;;;5106555;28;20521;-34
2022/07/29 07:28:08;;;;;;;1.70;1.60;;;18.30;96.20;;;;;;5108251;28;20023;-34
2022/07/29 07:30:34;;;;;;;2.83;1.73;;;18.40;96.10;;;;;;5107389;28;20027;-34
2022/07/29 07:33:00;;;;;;;2.70;1.63;;;18.50;96.40;;;;;;5106374;28;20475;-34
2022/07/29 07:35:27;;;;;;;3.95;1.40;;;18.50;96.00;;;;;;5107206;28;20038;-34
2022/07/29 07:37:53;;;;;;;2.67;1.48;;;18.50;96.00;;;;;;5108154;28;20016;-34
2022/07/29 07:40:19;;;;;;;1.35;1.20;;;18.50;96.00;;;;;;5106965;28;20028;-34
2022/07/29 07:42:44;;;;;;;1.50;1.40;;;18.60;96.00;;;;;;5107526;28;20540;-34
2022/07/29 07:45:11;;;;;;;1.75;1.40;;;18.60;96.00;;;;;;5107814;28;20114;-33
2022/07/29 07:47:37;;;;;;;2.85;1.30;;;18.70;95.90;;;;;;5107114;28;20031;-34
2022/07/29 07:50:07;;;;;;;1.58;1.33;;;18.70;95.90;;;;;;5106820;28;20322;-34
2022/07/29 07:52:33;;;;;;;1.75;1.30;;;18.70;95.90;;;;;;5108168;28;20498;-33
2022/07/29 07:54:59;;;;;;;1.80;1.70;;;18.80;95.90;;;;;;5106592;28;20030;-33
2022/07/29 07:57:25;;;;;;;2.78;1.35;;;18.80;95.80;;;;;;5107597;28;20441;-33
2022/07/29 07:59:50;;;;;;;2.47;1.50;;;18.80;95.80;;;;;;5107604;28;20055;-34
2022/07/29 08:02:16;;;;;;;1.63;1.23;;;18.80;95.80;;;;;;5106751;28;20027;-33
2022/07/29 08:04:41;;;;;;;2.05;1.20;;;18.90;96.00;;;;;;5106978;28;20542;-32
2022/07/29 08:07:08;;;;;;;1.80;1.40;;;19.00;95.70;;;;;;5107013;28;20030;-34
2022/07/29 08:09:35;;;;;;;1.50;1.38;;;19.00;95.60;;;;;;5107817;28;20036;-34
2022/07/29 08:12:05;;;;;;;2.63;1.90;;;19.00;95.60;;;;;;5107633;28;20020;-33
2022/07/29 08:14:31;;;;;;;2.60;1.70;;;19.00;95.60;;;;;;5106695;28;20031;-34
2022/07/29 08:16:57;;;;;;;2.40;1.60;;;19.00;95.50;;;;;;5107670;28;20452;-34
2022/07/29 08:19:22;;;;;;;2.15;1.63;;;19.00;95.50;;;;;;5107751;28;20051;-34
2022/07/29 08:21:48;;;;;;;2.85;1.40;;;19.00;95.50;;;;;;5106644;28;20026;-34
2022/07/29 08:26:58;;;;;;;2.22;1.55;;;18.90;95.50;;;;;;5107033;27;20053;-34
2022/07/29 08:29:23;;;;;;;2.17;1.42;;;18.90;95.60;;;;;;5106449;28;20028;-34
2022/07/29 08:31:49;;;;;;;2.97;1.60;;;19.00;95.70;;;;;;5108021;28;20112;-34
2022/07/29 08:34:14;;;;;;;3.10;1.30;;;18.90;95.70;;;;;;5108537;28;20023;-34
2022/07/29 08:36:40;;;;;;;1.20;1.10;;;19.00;95.70;;;;;;5106584;28;20023;-34
2022/07/29 08:39:06;;;;;;;3.80;1.40;;;19.10;95.70;;;;;;5107056;28;20039;-34
2022/07/29 08:41:31;;;;;;;2.40;1.30;;;19.10;95.70;;;;;;5108189;28;20504;-34
2022/07/29 08:43:57;;;;;;;3.17;1.33;;;19.20;95.70;;;;;;5106863;28;20028;-35
2022/07/29 08:46:22;;;;;;;2.65;1.40;;;19.20;95.70;;;;;;5107286;28;20046;-33
2022/07/29 08:48:48;;;;;;;1.95;1.35;;;19.30;95.70;;;;;;5107309;28;20486;-33
2022/07/29 08:51:19;;;;;;;2.25;1.83;;;19.40;95.70;;;;;;5105561;28;20028;-34
2022/07/29 08:53:48;;;;;;;2.60;1.35;;;19.40;95.60;;;;;;5106866;28;20026;-34
2022/07/29 08:56:16;;;;;;;1.77;1.27;;;19.50;95.60;;;;;;5106315;28;20023;-34
2022/07/29 08:58:42;;;;;;;1.88;1.40;;;19.60;95.60;;;;;;5106913;28;20022;-33
2022/07/29 09:01:10;;;;;;;1.63;1.35;;;19.60;95.60;;;;;;5107114;28;20020;-35
2022/07/29 09:03:38;;;;;;;1.65;1.30;;;19.70;95.60;;;;;;5105758;28;20492;-34
2022/07/29 09:06:04;;;;;;;2.55;1.70;;;19.80;95.60;;;;;;5106603;28;20436;-35
2022/07/29 09:08:36;;;;;;;2.80;1.60;;;19.80;95.60;;;;;;5106390;28;20035;-34
2022/07/29 09:11:03;;;;;;;1.90;1.25;;;19.90;95.50;;;;;;5106318;28;20036;-35
2022/07/29 09:13:28;;;;;;;2.22;1.55;;;19.90;95.50;;;;;;5106565;28;20904;-34
2022/07/29 09:15:54;;;;;;;2.38;1.30;;;20.00;95.50;;;;;;5106282;28;20019;-35
2022/07/29 09:18:35;;;;;;;1.83;1.35;;;20.10;95.50;;;;;;5105767;28;20412;-34
2022/07/29 09:24:16;;;;;;;2.25;1.13;;;20.30;95.40;;;;;;5106144;28;20042;-34
2022/07/29 09:26:43;;;;;;;1.77;1.33;;;20.30;95.40;;;;;;5067983;28;20474;-34
2022/07/29 09:29:17;;;;;;;1.55;1.30;;;20.30;95.30;;;;;;5103111;28;20031;-33
2022/07/29 09:31:47;;;;;;;3.67;1.63;;;20.20;95.40;;;;;;5085101;28;20043;-33
2022/07/29 09:34:16;;;;;;;1.75;1.40;;;20.20;95.40;;;;;;5101612;28;20073;-34
2022/07/29 09:36:47;;;;;;;3.40;1.60;;;20.10;95.40;;;;;;5106630;28;20023;-34
2022/07/29 09:39:14;;;;;;;1.58;1.48;;;20.10;95.50;;;;;;5105712;28;20034;-34
2022/07/29 09:41:52;;;;;;;1.95;1.20;;;20.10;95.60;;;;;;5105495;28;20485;-34
2022/07/29 09:44:19;;;;;;;2.08;1.40;;;20.00;95.70;;;;;;5106051;28;20076;-34
2022/07/29 09:47:08;;;;;;;2.42;1.58;;;20.00;95.70;;;;;;5105409;28;20070;-33
2022/07/29 09:49:35;;;;;;;2.33;1.20;;;20.00;95.70;;;;;;5105509;28;20040;-32
2022/07/29 09:52:06;;;;;;;2.55;1.60;;;20.00;95.60;;;;;;5105393;28;20027;-34
2022/07/29 09:54:36;;;;;;;3.55;1.45;;;20.10;95.60;;;;;;5105079;28;20034;-34
2022/07/29 09:57:04;;;;;;;2.88;1.10;;;20.20;95.50;;;;;;5105280;28;20106;-35
2022/07/29 09:59:29;;;;;;;2.13;1.40;;;20.30;95.40;;;;;;5104881;28;20020;-34
2022/07/29 10:01:56;;;;;;;1.23;1.13;;;20.30;95.30;;;;;;5105976;28;20114;-34
2022/07/29 10:04:21;;;;;;;2.53;1.40;;;20.50;95.30;;;;;;5103282;28;20502;-34
2022/07/29 10:06:57;;;;;;;2.85;1.30;;;20.60;95.20;;;;;;5104293;28;20092;-35
2022/07/29 10:09:24;;;;;;;2.35;1.20;;;20.80;95.10;;;;;;5105451;28;20032;-33
2022/07/29 10:12:15;;;;;;;2.58;1.33;;;20.90;94.90;;;;;;5106139;28;20474;-33
2022/07/29 10:14:41;;;;;;;1.60;1.33;;;21.00;94.80;;;;;;5104708;28;20032;-34
2022/07/29 10:17:09;;;;;;;2.10;1.58;;;21.10;94.70;;;;;;5104926;28;20027;-34
2022/07/29 10:19:37;;;;;;;1.63;1.20;;;21.20;94.70;;;;;;5105644;28;20031;-34
2022/07/29 10:22:08;;;;;;;1.35;1.20;;;21.30;94.70;;;;;;5105067;28;20076;-34
2022/07/29 10:24:35;;;;;;;2.72;1.60;;;21.30;94.70;;;;;;5105070;28;20023;-34
2022/07/29 10:27:02;;;;;;;2.10;1.30;;;21.40;94.70;;;;;;5104872;28;20481;-35
2022/07/29 10:29:31;;;;;;;1.30;1.20;;;21.40;94.60;;;;;;5104184;28;20032;-35
2022/07/29 10:32:02;;;;;;;1.15;1.05;;;21.50;94.70;;;;;;5105252;28;20023;-34
2022/07/29 10:34:52;;;;;;;2.05;1.40;;;21.40;94.60;;;;;;5105586;28;20103;-35
2022/07/29 10:37:35;;;;;;;1.40;1.20;;;21.50;94.50;;;;;;5103828;28;20020;-34
2022/07/29 10:43:35;;;;;;;1.30;1.17;;;21.40;94.50;;;;;;5096270;28;20050;-34
2022/07/29 10:46:02;;;;;;;1.45;1.23;;;21.60;94.50;;;;;;5082629;28;20507;-35
2022/07/29 10:48:28;;;;;;;1.60;1.50;;;21.70;94.50;;;;;;5105144;28;20034;-34
2022/07/29 10:51:00;;;;;;;1.70;1.15;;;21.70;94.40;;;;;;5104479;28;20103;-35
2022/07/29 10:53:50;;;;;;;1.85;1.40;;;21.90;94.40;;;;;;5104610;28;20024;-34
2022/07/29 10:56:30;;;;;;;3.45;1.77;;;22.00;94.30;;;;;;5103023;28;20047;-34
2022/07/29 10:59:17;;;;;;;2.42;1.50;;;22.00;94.20;;;;;;5104905;28;20035;-34
2022/07/29 11:01:43;;;;;;;2.15;1.60;;;22.10;94.10;;;;;;5105114;28;20404;-34
2022/07/29 11:04:09;;;;;;;2.10;1.45;;;22.10;94.00;;;;;;5104643;28;20116;-33
2022/07/29 11:07:09;;;;;;;2.70;1.30;;;22.00;93.90;;;;;;5104263;28;20079;-34
2022/07/29 11:09:34;;;;;;;2.17;1.42;;;22.00;93.60;;;;;;5107446;28;20082;-34
2022/07/29 11:12:00;;;;;;;1.10;1.00;;;21.90;93.40;;;;;;5108152;28;20024;-34
2022/07/29 11:14:57;;;;;;;1.30;1.10;;;21.90;93.30;;;;;;5106365;28;20380;-34
2022/07/29 11:17:23;;;;;;;1.92;1.50;;;21.90;93.40;;;;;;5107664;28;20127;-35
2022/07/29 11:19:49;;;;;;;1.77;1.10;;;21.90;93.50;;;;;;5109306;28;20118;-34
2022/07/29 11:22:33;;;;;;;1.83;1.10;;;22.00;93.50;;;;;;5109107;28;20098;-34
2022/07/29 11:25:18;;;;;;;2.30;1.30;;;22.20;93.60;;;;;;5108259;28;20024;-35
2022/07/29 11:27:46;;;;;;;2.38;1.23;;;22.30;92.90;;;;;;5107659;28;20514;-34
2022/07/29 11:30:12;;;;;;;2.38;1.17;;;22.40;92.60;;;;;;5108701;28;20027;-34
2022/07/29 11:32:41;;;;;;;3.67;1.30;;;22.50;92.40;;;;;;5107435;28;20034;-35
2022/07/29 11:35:23;;;;;;;4.20;1.30;;;22.60;91.90;;;;;;5108736;28;20383;-34
2022/07/29 11:38:27;;;;;;;1.75;1.30;;;22.60;91.70;;;;;;5108256;28;20041;-35
2022/07/29 11:41:17;;;;;;;2.42;1.45;;;22.60;91.30;;;;;;5107774;28;20550;-35
2022/07/29 11:43:50;;;;;;;2.88;1.45;;;22.60;91.30;;;;;;5107280;28;20526;-35
2022/07/29 11:46:35;;;;;;;3.53;1.20;;;22.70;91.20;;;;;;5108056;28;20055;-35
2022/07/29 11:49:02;;;;;;;2.47;1.40;;;22.70;91.20;;;;;;5107781;28;20108;-34
2022/07/29 11:51:28;;;;;;;2.30;1.60;;;22.60;91.30;;;;;;5108229;28;20426;-34
2022/07/29 11:53:55;;;;;;;2.33;1.40;;;22.60;91.40;;;;;;5107805;28;20487;-35
2022/07/29 11:56:21;;;;;;;2.35;1.50;;;22.60;91.00;;;;;;5109464;28;20020;-34
2022/07/29 11:58:47;;;;;;;1.83;1.23;;;22.60;91.00;;;;;;5108613;28;20051;-34
2022/07/29 12:01:17;;;;;;;2.05;1.77;;;22.60;91.00;;;;;;5106864;28;20114;-35
2022/07/29 12:03:42;;;;;;;3.25;1.60;;;22.60;91.00;;;;;;5106847;28;20761;-34
2022/07/29 12:06:15;;;;;;;2.42;1.60;;;22.60;90.90;;;;;;5106267;28;20039;-33
2022/07/29 12:08:42;;;;;;;1.70;1.30;;;22.60;90.90;;;;;;5106493;28;20169;-34
2022/07/29 12:11:15;;;;;;;3.38;1.80;;;22.70;90.80;;;;;;5105337;28;20114;-34
2022/07/29 12:13:41;;;;;;;1.88;1.58;;;22.80;90.60;;;;;;5105373;28;20856;-34
2022/07/29 12:16:06;;;;;;;2.60;1.25;;;22.80;90.60;;;;;;5106854;28;20038;-34
2022/07/29 12:18:32;;;;;;;2.55;1.10;;;22.80;90.60;;;;;;5106829;28;20022;-34
2022/07/29 12:21:03;;;;;;;2.08;1.30;;;22.90;90.60;;;;;;5105928;28;20028;-34
2022/07/29 12:23:34;;;;;;;2.17;1.25;;;23.00;90.60;;;;;;5106099;28;20296;-34
2022/07/29 12:26:00;;;;;;;2.45;1.30;;;23.10;90.50;;;;;;5106864;28;20056;-34
2022/07/29 12:28:26;;;;;;;2.63;1.10;;;23.10;90.50;;;;;;5105339;28;20456;-34
2022/07/29 12:30:52;;;;;;;1.17;1.00;;;23.20;90.50;;;;;;5106121;28;20072;-34
2022/07/29 12:33:19;;;;;;;2.33;1.10;;;23.30;90.50;;;;;;5106864;28;20031;-34
2022/07/29 12:35:47;;;;;;;2.13;1.42;;;23.40;90.40;;;;;;5105714;28;20596;-35
2022/07/29 12:38:14;;;;;;;3.67;1.40;;;23.50;90.40;;;;;;5106921;28;20016;-36
2022/07/29 12:40:40;;;;;;;3.00;1.30;;;23.60;90.30;;;;;;5105770;28;20156;-33
2022/07/29 12:43:11;;;;;;;1.08;0.98;;;23.70;90.30;;;;;;5106451;28;20023;-34
2022/07/29 12:45:38;;;;;;;2.45;1.20;;;23.80;90.30;;;;;;5106840;28;20043;-35
2022/07/29 12:48:06;;;;;;;2.15;1.00;;;23.80;90.20;;;;;;5107222;28;20049;-35
2022/07/29 12:50:32;;;;;;;2.40;1.15;;;23.90;90.20;;;;;;5105629;28;20529;-34
2022/07/29 12:53:18;;;;;;;1.17;1.08;;;23.90;90.10;;;;;;5106896;28;20201;-34
2022/07/29 12:55:54;;;;;;;1.42;1.20;;;24.00;90.10;;;;;;5105642;28;20357;-34
2022/07/29 12:58:34;;;;;;;2.15;0.98;;;24.00;90.00;;;;;;5107078;28;20126;-33
2022/07/29 13:01:04;;;;;;;1.27;1.02;;;24.10;90.00;;;;;;5106235;28;20034;-34
2022/07/29 13:03:46;;;;;;;1.73;1.20;;;24.20;90.00;;;;;;5106299;28;20138;-35
2022/07/29 13:06:45;;;;;;;1.52;1.20;;;24.20;89.80;;;;;;5106973;28;20402;-34